Time;durP1;ratioP1;P1;durP2;ratioP2;P2;SDS_P1;SDS_P2;PMS_P1;PMS_P2;Temp;Humidity;BMP_temperature;BMP_pressure;BME280_temperature;BME280_humidity;BME280_pressure;Samples;Min_cycle;Max_cycle;Signal;HPM_P1;HPM_P2
2021/09/15 00:02:14;;;;;;;7.93;7.13;;;;;;;;;;4971505;28;20039;-47
2021/09/15 00:04:41;;;;;;;9.15;7.18;;;;;;;;;;4967548;28;20053;-46
2021/09/15 00:07:07;;;;;;;9.85;7.25;;;;;;;;;;4953443;28;20445;-48
2021/09/15 00:09:34;;;;;;;8.82;7.75;;;;;;;;;;4953621;28;20549;-49
2021/09/15 00:12:01;;;;;;;8.50;7.63;;;;;;;;;;4953901;28;20509;-49
2021/09/15 00:14:28;;;;;;;9.88;7.30;;;;;;;;;;4962295;28;20070;-48
2021/09/15 00:16:55;;;;;;;9.60;7.50;;;;;;;;;;4971870;28;20140;-48
2021/09/15 00:19:21;;;;;;;12.60;7.78;;;;;;;;;;4973066;28;20074;-47
2021/09/15 00:21:48;;;;;;;8.50;7.25;;;;;;;;;;4973055;28;20047;-47
2021/09/15 00:24:15;;;;;;;8.90;7.22;;;;;;;;;;4954053;28;20122;-47
2021/09/15 00:26:42;;;;;;;11.35;7.63;;;;;;;;;;4954117;28;20130;-47
2021/09/15 00:29:10;;;;;;;12.35;7.53;;;;;;;;;;4954086;28;20188;-49
2021/09/15 00:31:37;;;;;;;9.95;7.32;;;;;;;;;;4971358;28;20077;-50
2021/09/15 00:34:04;;;;;;;9.27;7.57;;;;;;;;;;4972518;28;20043;-45
2021/09/15 00:36:30;;;;;;;8.73;7.50;;;;;;;;;;4954109;28;20043;-46
2021/09/15 00:38:57;;;;;;;10.05;7.85;;;;;;;;;;4954030;28;20420;-47
2021/09/15 00:41:24;;;;;;;8.88;7.75;;;;;;;;;;4953515;28;20082;-45
2021/09/15 00:43:57;;;;;;;11.05;7.30;;;;;;;;;;4953390;28;20138;-48
2021/09/15 00:46:26;;;;;;;8.73;7.43;;;;;;;;;;4972715;28;20078;-49
2021/09/15 00:48:52;;;;;;;11.00;8.70;;;;;;;;;;4971576;28;20126;-46
2021/09/15 00:51:20;;;;;;;8.45;7.50;;;;;;;;;;4971782;28;20059;-48
2021/09/15 00:53:47;;;;;;;9.23;7.97;;;;;;;;;;4957690;28;20049;-48
2021/09/15 00:56:15;;;;;;;10.02;7.93;;;;;;;;;;4960997;28;20043;-50
2021/09/15 00:58:43;;;;;;;10.13;7.40;;;;;;;;;;4972997;28;20049;-49
2021/09/15 01:01:10;;;;;;;10.15;7.80;;;;;;;;;;4962976;28;20389;-49
2021/09/15 01:03:38;;;;;;;8.68;7.07;;;;;;;;;;4952166;28;20386;-47
2021/09/15 01:06:07;;;;;;;8.43;7.35;;;;;;;;;;4953111;28;20363;-49
2021/09/15 01:08:37;;;;;;;9.07;7.82;;;;;;;;;;4954016;28;20050;-50
2021/09/15 01:11:04;;;;;;;9.00;7.70;;;;;;;;;;4957206;28;20050;-47
2021/09/15 01:13:36;;;;;;;9.57;7.55;;;;;;;;;;4957208;28;20421;-47
2021/09/15 01:16:52;;;;;;;8.32;7.45;;;;;;;;;;4936216;29;20043;-46
2021/09/15 01:19:44;;;;;;;7.65;6.78;;;;;;;;;;4935046;28;20078;-46
2021/09/15 01:22:29;;;;;;;8.90;7.20;;;;;;;;;;4957150;28;20627;-44
2021/09/15 01:25:35;;;;;;;9.38;7.63;;;;;;;;;;4961332;28;20051;-46
2021/09/15 01:28:24;;;;;;;8.50;7.50;;;;;;;;;;4945910;29;20105;-49
2021/09/15 01:30:59;;;;;;;9.05;7.32;;;;;;;;;;4963020;28;20081;-47
2021/09/15 01:33:27;;;;;;;9.02;7.18;;;;;;;;;;4979074;28;20515;-46
2021/09/15 01:35:54;;;;;;;11.63;7.57;;;;;;;;;;4964570;28;20130;-44
2021/09/15 01:38:20;;;;;;;11.00;7.30;;;;;;;;;;4957396;29;20134;-48
2021/09/15 01:40:47;;;;;;;8.88;6.93;;;;;;;;;;4955532;28;20054;-47
2021/09/15 01:43:16;;;;;;;10.38;7.32;;;;;;;;;;4961759;28;20123;-44
2021/09/15 01:45:43;;;;;;;9.07;7.20;;;;;;;;;;4974636;28;20125;-47
2021/09/15 01:48:18;;;;;;;10.57;8.15;;;;;;;;;;4974063;28;20073;-45
2021/09/15 01:50:45;;;;;;;10.18;8.00;;;;;;;;;;4974144;28;20453;-43
2021/09/15 01:53:12;;;;;;;8.82;7.88;;;;;;;;;;4969267;28;20053;-41
2021/09/15 01:55:39;;;;;;;9.25;8.25;;;;;;;;;;4957715;28;20055;-43
2021/09/15 01:58:24;;;;;;;9.60;8.43;;;;;;;;;;4975351;28;20572;-43
2021/09/15 02:01:04;;;;;;;9.82;8.27;;;;;;;;;;4967670;28;20457;-43
2021/09/15 02:03:53;;;;;;;8.70;7.68;;;;;;;;;;4955378;28;20556;-44
2021/09/15 02:06:39;;;;;;;9.60;7.85;;;;;;;;;;4955935;28;20544;-45
2021/09/15 02:09:21;;;;;;;9.45;7.65;;;;;;;;;;4954468;28;20505;-43
2021/09/15 02:11:57;;;;;;;10.07;8.02;;;;;;;;;;4954457;28;20358;-41
2021/09/15 02:14:24;;;;;;;8.10;7.25;;;;;;;;;;4953797;28;20047;-46
2021/09/15 02:16:50;;;;;;;9.02;7.78;;;;;;;;;;4955545;28;20047;-41
2021/09/15 02:19:19;;;;;;;8.23;7.10;;;;;;;;;;4954574;28;20063;-41
2021/09/15 02:22:05;;;;;;;15.25;8.13;;;;;;;;;;4954376;28;20118;-41
2021/09/15 02:24:50;;;;;;;11.38;8.27;;;;;;;;;;4954979;28;20039;-44
2021/09/15 02:27:52;;;;;;;12.30;8.63;;;;;;;;;;4953031;29;20047;-44
2021/09/15 02:30:30;;;;;;;17.92;9.20;;;;;;;;;;4953796;28;20059;-46
2021/09/15 02:33:05;;;;;;;11.15;7.90;;;;;;;;;;4954233;28;20043;-42
2021/09/15 02:35:47;;;;;;;8.40;7.50;;;;;;;;;;4955167;28;20516;-42
2021/09/15 02:38:29;;;;;;;9.00;8.00;;;;;;;;;;4954140;29;20073;-41
2021/09/15 02:41:19;;;;;;;8.20;7.40;;;;;;;;;;4936211;29;20088;-43
2021/09/15 02:44:11;;;;;;;10.70;8.55;;;;;;;;;;4955350;28;20047;-44
2021/09/15 02:46:57;;;;;;;10.48;8.07;;;;;;;;;;4954868;29;20043;-41
2021/09/15 02:49:44;;;;;;;11.70;8.57;;;;;;;;;;4954873;28;20043;-45
2021/09/15 02:52:34;;;;;;;9.15;7.75;;;;;;;;;;4954541;28;20110;-42
2021/09/15 02:55:21;;;;;;;8.82;7.75;;;;;;;;;;4953687;28;20039;-44
2021/09/15 02:57:51;;;;;;;9.02;7.93;;;;;;;;;;4972598;28;20055;-45
2021/09/15 03:00:36;;;;;;;9.55;7.72;;;;;;;;;;4973034;28;20105;-44
2021/09/15 03:03:10;;;;;;;9.93;8.00;;;;;;;;;;4968992;28;20102;-43
2021/09/15 03:05:55;;;;;;;9.40;8.48;;;;;;;;;;4968205;28;20043;-42
2021/09/15 03:09:00;;;;;;;14.63;8.48;;;;;;;;;;4953571;28;20505;-45
2021/09/15 03:11:27;;;;;;;11.00;8.68;;;;;;;;;;4953103;28;20040;-41
2021/09/15 03:13:54;;;;;;;11.38;7.80;;;;;;;;;;4958627;28;20051;-41
2021/09/15 03:16:25;;;;;;;12.25;7.97;;;;;;;;;;4954203;28;20063;-43
2021/09/15 03:18:56;;;;;;;10.35;7.88;;;;;;;;;;4953131;28;20410;-45
2021/09/15 03:21:23;;;;;;;10.93;8.65;;;;;;;;;;4952961;28;20062;-41
2021/09/15 03:23:50;;;;;;;10.02;8.10;;;;;;;;;;4952636;29;20043;-46
2021/09/15 03:26:17;;;;;;;9.52;8.02;;;;;;;;;;4953049;29;20046;-42
2021/09/15 03:28:44;;;;;;;9.52;7.70;;;;;;;;;;4952973;28;20101;-43
2021/09/15 03:31:11;;;;;;;10.25;8.70;;;;;;;;;;4952603;28;20050;-42
2021/09/15 03:33:38;;;;;;;11.82;8.23;;;;;;;;;;4952555;29;20125;-42
2021/09/15 03:36:05;;;;;;;13.00;8.93;;;;;;;;;;4952890;28;20090;-45
2021/09/15 03:38:34;;;;;;;10.32;8.35;;;;;;;;;;4952867;28;20043;-44
2021/09/15 03:41:03;;;;;;;12.32;9.40;;;;;;;;;;4952683;28;20070;-43
2021/09/15 03:43:30;;;;;;;12.27;7.93;;;;;;;;;;4952272;28;20069;-41
2021/09/15 03:45:57;;;;;;;12.02;8.23;;;;;;;;;;4947763;29;20130;-45
2021/09/15 03:48:24;;;;;;;10.05;8.52;;;;;;;;;;4952631;28;20067;-44
2021/09/15 03:50:50;;;;;;;10.10;8.75;;;;;;;;;;4953804;28;20062;-41
2021/09/15 03:53:19;;;;;;;12.10;9.35;;;;;;;;;;4955039;28;20057;-43
2021/09/15 03:55:46;;;;;;;10.07;8.38;;;;;;;;;;4971649;28;20404;-45
2021/09/15 03:58:12;;;;;;;10.55;8.13;;;;;;;;;;4971861;28;20042;-43
2021/09/15 04:00:40;;;;;;;12.13;9.30;;;;;;;;;;4971582;28;20046;-48
2021/09/15 04:03:08;;;;;;;9.35;8.07;;;;;;;;;;4963960;28;20050;-42
2021/09/15 04:05:34;;;;;;;10.15;8.43;;;;;;;;;;4952157;28;20039;-41
2021/09/15 04:08:02;;;;;;;10.45;8.10;;;;;;;;;;4952410;28;20043;-45
2021/09/15 04:10:29;;;;;;;12.25;8.15;;;;;;;;;;4952357;28;20040;-42
2021/09/15 04:12:58;;;;;;;8.57;6.93;;;;;;;;;;4953486;28;20054;-43
2021/09/15 04:15:29;;;;;;;10.52;9.20;;;;;;;;;;4952265;28;20051;-44
2021/09/15 04:17:56;;;;;;;9.68;7.82;;;;;;;;;;4952371;28;20069;-41
2021/09/15 04:20:23;;;;;;;11.73;8.57;;;;;;;;;;4952186;28;20050;-42
2021/09/15 04:22:50;;;;;;;10.18;8.02;;;;;;;;;;4952480;28;20047;-41
2021/09/15 04:33:35;;;;;;;11.55;8.25;;;;;;;;;;4951592;29;20376;-43
2021/09/15 04:36:03;;;;;;;9.70;8.68;;;;;;;;;;4964039;28;20144;-46
2021/09/15 04:38:30;;;;;;;10.98;8.77;;;;;;;;;;4968004;28;20057;-41
2021/09/15 04:40:57;;;;;;;11.35;8.93;;;;;;;;;;4951910;28;20071;-44
2021/09/15 04:43:27;;;;;;;12.35;8.40;;;;;;;;;;4952488;28;20059;-44
2021/09/15 04:45:54;;;;;;;14.13;7.60;;;;;;;;;;4972780;28;20049;-41
2021/09/15 04:48:22;;;;;;;9.77;8.27;;;;;;;;;;4975280;28;20357;-40
2021/09/15 04:50:49;;;;;;;10.52;8.23;;;;;;;;;;4975070;28;20492;-46
2021/09/15 04:53:16;;;;;;;12.68;8.50;;;;;;;;;;4969629;28;20544;-41
2021/09/15 04:55:44;;;;;;;11.00;8.63;;;;;;;;;;4959034;28;20452;-41
2021/09/15 04:58:12;;;;;;;11.10;8.38;;;;;;;;;;4974986;28;20179;-43
2021/09/15 05:00:41;;;;;;;9.93;8.10;;;;;;;;;;4973764;28;20101;-42
2021/09/15 05:03:10;;;;;;;13.23;9.02;;;;;;;;;;4974437;28;20089;-43
2021/09/15 05:05:40;;;;;;;11.60;8.20;;;;;;;;;;4970493;28;20050;-47
2021/09/15 05:08:12;;;;;;;12.17;8.37;;;;;;;;;;4955939;29;20098;-45
2021/09/15 05:10:39;;;;;;;11.88;8.50;;;;;;;;;;4955312;28;20118;-42
2021/09/15 05:13:07;;;;;;;10.02;7.93;;;;;;;;;;4959810;28;20122;-44
2021/09/15 05:15:37;;;;;;;13.60;8.27;;;;;;;;;;4971818;28;20152;-42
2021/09/15 05:18:05;;;;;;;11.75;8.45;;;;;;;;;;4955683;28;20485;-44
2021/09/15 05:20:33;;;;;;;10.93;7.28;;;;;;;;;;4955924;28;20058;-41
2021/09/15 05:23:00;;;;;;;9.45;7.30;;;;;;;;;;4956021;28;20050;-44
2021/09/15 05:25:28;;;;;;;10.27;6.97;;;;;;;;;;4956109;28;20051;-43
2021/09/15 05:27:56;;;;;;;10.43;6.95;;;;;;;;;;4956602;29;20103;-43
2021/09/15 05:30:24;;;;;;;8.57;6.80;;;;;;;;;;4956916;28;20058;-42
2021/09/15 05:32:55;;;;;;;9.43;7.22;;;;;;;;;;4955346;29;20072;-45
2021/09/15 05:35:23;;;;;;;12.57;7.78;;;;;;;;;;4947849;28;20047;-45
2021/09/15 05:37:53;;;;;;;8.35;7.35;;;;;;;;;;4955248;29;20040;-46
2021/09/15 05:40:20;;;;;;;11.15;7.45;;;;;;;;;;4955964;28;20067;-45
2021/09/15 05:42:47;;;;;;;9.40;7.47;;;;;;;;;;4971059;28;20110;-47
2021/09/15 05:45:16;;;;;;;11.38;7.30;;;;;;;;;;4968537;28;20039;-48
2021/09/15 05:47:45;;;;;;;8.38;6.65;;;;;;;;;;4974130;28;20352;-51
2021/09/15 05:50:12;;;;;;;8.50;7.07;;;;;;;;;;4975767;28;20042;-46
2021/09/15 05:52:44;;;;;;;8.60;7.10;;;;;;;;;;4970182;28;20358;-49
2021/09/15 05:55:11;;;;;;;8.85;6.80;;;;;;;;;;4939447;29;20126;-50
2021/09/15 05:57:38;;;;;;;8.25;6.68;;;;;;;;;;4973514;28;20130;-49
2021/09/15 06:00:06;;;;;;;10.07;7.40;;;;;;;;;;4955833;28;20057;-47
2021/09/15 06:02:51;;;;;;;12.43;9.15;;;;;;;;;;4972909;28;20046;-46
2021/09/15 06:05:36;;;;;;;9.90;6.90;;;;;;;;;;4973842;28;20050;-47
2021/09/15 06:08:04;;;;;;;8.35;6.57;;;;;;;;;;4974928;28;20531;-43
2021/09/15 06:10:30;;;;;;;9.93;7.28;;;;;;;;;;4974130;28;20106;-46
2021/09/15 06:12:57;;;;;;;17.40;7.40;;;;;;;;;;4980663;28;20073;-42
2021/09/15 06:15:24;;;;;;;11.50;7.22;;;;;;;;;;4985656;28;20042;-43
2021/09/15 06:17:57;;;;;;;8.68;6.57;;;;;;;;;;4990656;28;20062;-45
2021/09/15 06:20:28;;;;;;;9.38;7.25;;;;;;;;;;4973633;28;20113;-43
2021/09/15 06:23:10;;;;;;;8.90;7.53;;;;;;;;;;4963225;28;20047;-44
2021/09/15 06:25:49;;;;;;;9.20;6.75;;;;;;;;;;4954215;29;20067;-43
2021/09/15 06:28:17;;;;;;;9.40;7.15;;;;;;;;;;4960029;28;20071;-46
2021/09/15 06:30:50;;;;;;;9.73;6.70;;;;;;;;;;4973473;28;21001;-49
2021/09/15 06:33:18;;;;;;;10.18;7.35;;;;;;;;;;4979574;28;20508;-49
2021/09/15 06:35:46;;;;;;;10.05;7.30;;;;;;;;;;4969675;28;20039;-47
2021/09/15 06:38:13;;;;;;;7.97;6.75;;;;;;;;;;4974458;28;20519;-47
2021/09/15 06:40:41;;;;;;;8.45;7.03;;;;;;;;;;4972817;28;20471;-46
2021/09/15 06:43:08;;;;;;;8.48;6.80;;;;;;;;;;4962650;28;20102;-50
2021/09/15 06:45:35;;;;;;;9.57;6.78;;;;;;;;;;4955084;28;20050;-43
2021/09/15 06:48:02;;;;;;;9.48;7.28;;;;;;;;;;4955281;28;20421;-48
2021/09/15 06:50:29;;;;;;;8.63;7.05;;;;;;;;;;4954794;28;20055;-44
2021/09/15 06:52:57;;;;;;;7.97;6.50;;;;;;;;;;4954772;28;20425;-42
2021/09/15 06:55:24;;;;;;;10.98;7.43;;;;;;;;;;4954401;28;20119;-46
2021/09/15 06:57:51;;;;;;;8.35;6.38;;;;;;;;;;4953759;28;20385;-43
2021/09/15 07:00:19;;;;;;;9.82;6.93;;;;;;;;;;4954784;28;20067;-49
2021/09/15 07:02:46;;;;;;;10.13;7.32;;;;;;;;;;4954500;28;20042;-47
2021/09/15 07:05:13;;;;;;;10.00;7.25;;;;;;;;;;4962205;28;20463;-48
2021/09/15 07:07:40;;;;;;;8.15;7.15;;;;;;;;;;4973044;28;20066;-48
2021/09/15 07:10:07;;;;;;;14.32;6.70;;;;;;;;;;4972570;28;20153;-48
2021/09/15 07:12:35;;;;;;;12.35;6.97;;;;;;;;;;4981172;28;20511;-47
2021/09/15 07:15:02;;;;;;;11.70;7.00;;;;;;;;;;4972717;28;20043;-47
2021/09/15 07:17:29;;;;;;;11.98;6.53;;;;;;;;;;4989238;28;20129;-45
2021/09/15 07:19:56;;;;;;;14.13;7.90;;;;;;;;;;4977704;28;20034;-42
2021/09/15 07:22:23;;;;;;;12.80;7.72;;;;;;;;;;4988413;28;20489;-43
2021/09/15 07:24:51;;;;;;;8.63;6.63;;;;;;;;;;4979956;28;20093;-45
2021/09/15 07:27:18;;;;;;;10.15;7.50;;;;;;;;;;4981173;28;20113;-41
2021/09/15 07:29:45;;;;;;;11.10;7.90;;;;;;;;;;4987784;28;20546;-44
2021/09/15 07:32:25;;;;;;;10.70;7.22;;;;;;;;;;4967048;28;20494;-41
2021/09/15 07:34:52;;;;;;;10.77;7.40;;;;;;;;;;4976150;28;20062;-42
2021/09/15 07:37:19;;;;;;;10.05;7.22;;;;;;;;;;4992272;28;20054;-41
2021/09/15 07:39:46;;;;;;;10.25;7.45;;;;;;;;;;4984246;28;20097;-45
2021/09/15 07:42:13;;;;;;;10.65;7.55;;;;;;;;;;4991183;28;20052;-42
2021/09/15 07:44:40;;;;;;;10.57;7.57;;;;;;;;;;4986135;28;20047;-44
2021/09/15 07:47:07;;;;;;;9.20;7.53;;;;;;;;;;4973700;28;20073;-43
2021/09/15 07:49:34;;;;;;;8.68;6.97;;;;;;;;;;4973449;28;20162;-42
2021/09/15 07:52:00;;;;;;;14.05;7.32;;;;;;;;;;4970786;28;20089;-44
2021/09/15 07:54:27;;;;;;;10.13;7.70;;;;;;;;;;4972923;28;20085;-44
2021/09/15 07:56:54;;;;;;;10.23;7.57;;;;;;;;;;4972784;28;20126;-44
2021/09/15 07:59:21;;;;;;;11.32;8.07;;;;;;;;;;4972798;28;20090;-48
2021/09/15 08:01:48;;;;;;;11.32;8.27;;;;;;;;;;4972696;28;20094;-42
2021/09/15 08:04:15;;;;;;;11.25;8.57;;;;;;;;;;4970662;28;20105;-47
2021/09/15 08:06:41;;;;;;;13.52;7.70;;;;;;;;;;4974918;28;20351;-44
2021/09/15 08:09:16;;;;;;;14.23;8.10;;;;;;;;;;4973192;28;20386;-44
2021/09/15 08:11:42;;;;;;;10.15;7.97;;;;;;;;;;4971770;28;20067;-42
2021/09/15 08:14:09;;;;;;;11.70;7.68;;;;;;;;;;4972991;28;20464;-44
2021/09/15 08:16:38;;;;;;;11.00;8.13;;;;;;;;;;4976319;28;20047;-41
2021/09/15 08:19:04;;;;;;;10.45;7.55;;;;;;;;;;4972339;28;20166;-42
2021/09/15 08:21:39;;;;;;;10.73;8.13;;;;;;;;;;4971882;28;20070;-41
2021/09/15 08:24:06;;;;;;;8.80;7.47;;;;;;;;;;4971275;28;20039;-45
2021/09/15 08:26:33;;;;;;;11.57;7.95;;;;;;;;;;4974519;28;20038;-44
2021/09/15 08:29:00;;;;;;;11.43;7.80;;;;;;;;;;4973464;28;20047;-48
2021/09/15 08:31:27;;;;;;;9.02;7.80;;;;;;;;;;4980959;28;20035;-42
2021/09/15 08:33:53;;;;;;;11.00;7.63;;;;;;;;;;4975985;28;20042;-43
2021/09/15 08:36:21;;;;;;;9.55;7.60;;;;;;;;;;4974680;28;20564;-41
2021/09/15 08:38:48;;;;;;;9.45;7.72;;;;;;;;;;4970916;28;20121;-46
2021/09/15 08:41:15;;;;;;;12.07;7.90;;;;;;;;;;4980388;28;20073;-43
2021/09/15 08:43:43;;;;;;;11.20;7.70;;;;;;;;;;4975170;28;20170;-46
2021/09/15 08:46:11;;;;;;;10.23;7.75;;;;;;;;;;4987742;28;20073;-42
2021/09/15 08:48:40;;;;;;;10.48;7.38;;;;;;;;;;4986008;28;20115;-42
2021/09/15 08:51:11;;;;;;;10.25;8.63;;;;;;;;;;4985192;28;20045;-43
2021/09/15 08:53:38;;;;;;;12.30;8.60;;;;;;;;;;4976174;28;20039;-42
2021/09/15 08:56:05;;;;;;;10.88;8.20;;;;;;;;;;4974364;28;20057;-42
2021/09/15 08:58:32;;;;;;;13.07;8.15;;;;;;;;;;4988070;28;20046;-44
2021/09/15 09:01:16;;;;;;;11.18;8.68;;;;;;;;;;4959445;28;20042;-43
2021/09/15 09:03:44;;;;;;;11.90;7.55;;;;;;;;;;4981777;28;20125;-42
2021/09/15 09:06:13;;;;;;;9.88;7.43;;;;;;;;;;4979076;28;20096;-47
2021/09/15 09:08:40;;;;;;;11.88;7.97;;;;;;;;;;4971917;28;20038;-46
2021/09/15 09:11:07;;;;;;;13.20;8.93;;;;;;;;;;4971578;28;20109;-43
2021/09/15 09:13:35;;;;;;;10.75;7.55;;;;;;;;;;4958064;28;20514;-44
2021/09/15 09:16:02;;;;;;;11.38;8.43;;;;;;;;;;4954398;28;20110;-43
2021/09/15 09:18:29;;;;;;;17.48;8.55;;;;;;;;;;4991834;28;20042;-46
2021/09/15 09:20:56;;;;;;;12.50;7.93;;;;;;;;;;4983342;28;20046;-42
2021/09/15 09:23:39;;;;;;;14.02;7.90;;;;;;;;;;4970540;28;20042;-45
2021/09/15 09:26:06;;;;;;;9.52;7.60;;;;;;;;;;4970202;28;20095;-46
2021/09/15 09:28:40;;;;;;;10.13;8.27;;;;;;;;;;4970700;28;20046;-42
2021/09/15 09:31:08;;;;;;;9.48;7.50;;;;;;;;;;4962729;28;20102;-43
2021/09/15 09:33:50;;;;;;;;;;;;;;;;;;4974666;28;20035;-46
2021/09/15 09:36:17;;;;;;;11.30;7.82;;;;;;;;;;4977383;28;19929;-43
2021/09/15 09:38:44;;;;;;;10.52;7.40;;;;;;;;;;4995671;28;20108;-43
2021/09/15 09:41:22;;;;;;;10.35;7.55;;;;;;;;;;4994355;28;20043;-43
2021/09/15 09:43:55;;;;;;;9.48;7.45;;;;;;;;;;4983340;28;20093;-42
2021/09/15 09:46:34;;;;;;;9.18;7.40;;;;;;;;;;4993570;28;20049;-44
2021/09/15 09:49:12;;;;;;;11.20;7.20;;;;;;;;;;4993774;28;20054;-42
2021/09/15 09:51:44;;;;;;;9.93;7.47;;;;;;;;;;4967076;28;20090;-41
2021/09/15 09:54:14;;;;;;;9.55;7.70;;;;;;;;;;4955944;28;20062;-42
2021/09/15 09:56:42;;;;;;;8.27;7.38;;;;;;;;;;4955939;28;20079;-42
2021/09/15 09:59:10;;;;;;;8.90;7.07;;;;;;;;;;4972425;28;20089;-42
2021/09/15 10:01:38;;;;;;;8.73;7.07;;;;;;;;;;4973415;28;20130;-45
2021/09/15 10:04:05;;;;;;;10.57;7.50;;;;;;;;;;4974046;28;20133;-49
2021/09/15 10:06:32;;;;;;;9.88;7.25;;;;;;;;;;4982575;28;20459;-42
2021/09/15 10:09:00;;;;;;;11.60;7.70;;;;;;;;;;4974321;28;20038;-42
2021/09/15 10:11:27;;;;;;;11.32;7.85;;;;;;;;;;4974820;28;20551;-43
2021/09/15 10:13:54;;;;;;;10.68;7.68;;;;;;;;;;4961458;28;20047;-42
2021/09/15 10:16:22;;;;;;;8.40;7.50;;;;;;;;;;4955486;28;20134;-42
2021/09/15 10:19:00;;;;;;;10.45;7.57;;;;;;;;;;4971013;28;20052;-43
2021/09/15 10:21:29;;;;;;;11.45;8.15;;;;;;;;;;4965455;28;20039;-42
2021/09/15 10:23:55;;;;;;;10.82;7.75;;;;;;;;;;4970621;28;20416;-44
2021/09/15 10:26:33;;;;;;;11.50;8.55;;;;;;;;;;4978634;28;20062;-43
2021/09/15 10:29:16;;;;;;;9.90;7.90;;;;;;;;;;4991616;28;20130;-45
2021/09/15 10:31:49;;;;;;;11.85;7.80;;;;;;;;;;4972862;28;20038;-43
2021/09/15 10:34:34;;;;;;;11.18;8.18;;;;;;;;;;4972554;28;20053;-42
2021/09/15 10:37:02;;;;;;;9.43;8.43;;;;;;;;;;4955285;28;20478;-42
2021/09/15 10:39:29;;;;;;;15.35;8.95;;;;;;;;;;4955171;28;20075;-42
2021/09/15 10:41:55;;;;;;;12.27;9.77;;;;;;;;;;4953858;28;20071;-44
2021/09/15 10:44:23;;;;;;;13.10;10.00;;;;;;;;;;4954555;28;20053;-43
2021/09/15 10:47:09;;;;;;;12.50;8.68;;;;;;;;;;4955245;28;20049;-44
2021/09/15 10:49:36;;;;;;;11.93;9.60;;;;;;;;;;4954897;28;20147;-43
2021/09/15 10:52:09;;;;;;;12.57;9.15;;;;;;;;;;4971905;28;20053;-42
2021/09/15 10:54:51;;;;;;;11.98;9.50;;;;;;;;;;4973997;28;20512;-43
2021/09/15 10:57:20;;;;;;;11.23;9.38;;;;;;;;;;4973885;28;20063;-48
2021/09/15 10:59:47;;;;;;;11.35;9.15;;;;;;;;;;4966348;28;20047;-42
2021/09/15 11:02:42;;;;;;;10.25;8.68;;;;;;;;;;4954402;28;20066;-44
2021/09/15 11:05:27;;;;;;;15.25;9.70;;;;;;;;;;4950235;28;20417;-43
2021/09/15 11:07:54;;;;;;;11.40;9.18;;;;;;;;;;4954397;28;20489;-47
2021/09/15 11:10:33;;;;;;;11.90;9.60;;;;;;;;;;4954400;28;20056;-44
2021/09/15 11:13:14;;;;;;;13.38;8.93;;;;;;;;;;4971585;28;20043;-53
2021/09/15 11:15:41;;;;;;;12.57;10.45;;;;;;;;;;4972859;28;20468;-43
2021/09/15 11:18:14;;;;;;;10.23;8.80;;;;;;;;;;4972680;28;20093;-42
2021/09/15 11:20:41;;;;;;;11.18;8.10;;;;;;;;;;4977168;28;20078;-47
2021/09/15 11:23:08;;;;;;;9.35;7.60;;;;;;;;;;4973256;28;20118;-45
2021/09/15 11:25:35;;;;;;;12.10;9.10;;;;;;;;;;4979345;28;20043;-45
2021/09/15 11:28:12;;;;;;;9.88;7.78;;;;;;;;;;4973134;28;20135;-46
2021/09/15 11:31:00;;;;;;;10.27;8.27;;;;;;;;;;4969236;28;20129;-47
2021/09/15 11:33:26;;;;;;;11.40;8.80;;;;;;;;;;4970681;28;20045;-51
2021/09/15 11:35:57;;;;;;;11.38;7.57;;;;;;;;;;4976015;28;20049;-45
2021/09/15 11:38:26;;;;;;;10.82;8.45;;;;;;;;;;4973988;28;20043;-46
2021/09/15 11:41:02;;;;;;;10.15;8.32;;;;;;;;;;4973775;28;20101;-48
2021/09/15 11:43:30;;;;;;;9.60;8.10;;;;;;;;;;4975969;28;20385;-44
2021/09/15 11:45:56;;;;;;;13.10;8.25;;;;;;;;;;4967016;28;20047;-45
2021/09/15 11:48:30;;;;;;;10.18;8.30;;;;;;;;;;4976483;28;20041;-44
2021/09/15 11:50:57;;;;;;;10.95;8.43;;;;;;;;;;4976915;28;20118;-44
2021/09/15 11:53:26;;;;;;;11.32;8.45;;;;;;;;;;4976616;28;20125;-46
2021/09/15 11:56:02;;;;;;;11.23;8.32;;;;;;;;;;4976316;28;20055;-44
2021/09/15 11:58:29;;;;;;;9.90;8.20;;;;;;;;;;4976275;28;20049;-42
2021/09/15 12:00:56;;;;;;;15.50;8.43;;;;;;;;;;4976790;28;20048;-42
2021/09/15 12:03:30;;;;;;;11.10;8.48;;;;;;;;;;4976590;28;20062;-44
2021/09/15 12:05:58;;;;;;;10.05;8.73;;;;;;;;;;4969907;28;20049;-40
2021/09/15 12:08:25;;;;;;;10.25;8.77;;;;;;;;;;4973906;28;20162;-43
2021/09/15 12:10:53;;;;;;;12.23;9.10;;;;;;;;;;4978589;28;20086;-47
2021/09/15 12:13:27;;;;;;;11.82;8.98;;;;;;;;;;4979230;28;20510;-41
2021/09/15 12:15:54;;;;;;;12.20;9.13;;;;;;;;;;4976361;28;20061;-46
2021/09/15 12:18:21;;;;;;;11.38;8.88;;;;;;;;;;4979676;28;20048;-42
2021/09/15 12:20:49;;;;;;;12.07;8.43;;;;;;;;;;4986577;28;20057;-48
2021/09/15 12:23:16;;;;;;;12.18;9.25;;;;;;;;;;4978343;28;20043;-46
2021/09/15 12:25:52;;;;;;;12.85;9.32;;;;;;;;;;4968479;28;20048;-46
2021/09/15 12:28:20;;;;;;;11.85;9.23;;;;;;;;;;4988196;28;20118;-48
2021/09/15 12:30:47;;;;;;;12.13;8.95;;;;;;;;;;4974448;28;20545;-47
2021/09/15 12:33:21;;;;;;;14.35;9.23;;;;;;;;;;4978972;28;20481;-46
2021/09/15 12:36:18;;;;;;;13.18;9.77;;;;;;;;;;4969472;28;20038;-46
2021/09/15 12:38:46;;;;;;;13.25;9.30;;;;;;;;;;4985830;28;20052;-47
2021/09/15 12:41:13;;;;;;;13.27;9.77;;;;;;;;;;4983217;28;20055;-46
2021/09/15 12:43:39;;;;;;;14.90;9.48;;;;;;;;;;4973837;28;20125;-48
2021/09/15 12:46:26;;;;;;;12.35;9.38;;;;;;;;;;4974420;28;20118;-46
2021/09/15 12:48:53;;;;;;;12.88;9.23;;;;;;;;;;4974110;28;20047;-46
2021/09/15 12:51:21;;;;;;;12.25;8.52;;;;;;;;;;4974974;28;20150;-47
2021/09/15 12:53:51;;;;;;;15.90;8.93;;;;;;;;;;4973986;28;20045;-51
2021/09/15 12:56:22;;;;;;;12.10;9.32;;;;;;;;;;4972919;28;20031;-48
2021/09/15 12:58:49;;;;;;;14.73;10.80;;;;;;;;;;4968404;28;20043;-45
2021/09/15 13:01:23;;;;;;;11.65;9.80;;;;;;;;;;4976054;28;20400;-48
2021/09/15 13:03:53;;;;;;;15.00;10.27;;;;;;;;;;4967709;28;20043;-49
2021/09/15 13:06:21;;;;;;;13.35;10.43;;;;;;;;;;4970038;28;20133;-45
2021/09/15 13:08:52;;;;;;;15.73;10.90;;;;;;;;;;4979670;28;20121;-45
2021/09/15 13:11:20;;;;;;;14.18;11.90;;;;;;;;;;4990969;28;20053;-45
2021/09/15 13:13:47;;;;;;;15.48;13.13;;;;;;;;;;4979706;28;20442;-45
2021/09/15 13:16:13;;;;;;;15.73;13.82;;;;;;;;;;4979864;28;20054;-44
2021/09/15 13:18:40;;;;;;;16.02;12.43;;;;;;;;;;4976444;28;20488;-45
2021/09/15 13:21:07;;;;;;;16.65;13.98;;;;;;;;;;4974072;28;20077;-44
2021/09/15 13:23:34;;;;;;;16.95;13.57;;;;;;;;;;4981529;28;20074;-46
2021/09/15 13:26:05;;;;;;;15.73;13.43;;;;;;;;;;4975018;28;20043;-47
2021/09/15 13:28:33;;;;;;;16.38;14.18;;;;;;;;;;4985210;28;20039;-47
2021/09/15 13:31:00;;;;;;;16.42;13.75;;;;;;;;;;4979766;28;20046;-47
2021/09/15 13:33:27;;;;;;;18.15;14.38;;;;;;;;;;4980195;28;20046;-48
2021/09/15 13:35:54;;;;;;;15.90;13.27;;;;;;;;;;4973327;28;20051;-45
2021/09/15 13:38:21;;;;;;;18.05;13.88;;;;;;;;;;4986887;28;20077;-45
2021/09/15 13:40:48;;;;;;;18.23;14.68;;;;;;;;;;4981754;28;20362;-46
2021/09/15 13:43:15;;;;;;;18.52;15.23;;;;;;;;;;4970546;28;20573;-48
2021/09/15 13:45:42;;;;;;;17.60;13.65;;;;;;;;;;4992523;28;20634;-47
2021/09/15 13:48:09;;;;;;;17.55;13.82;;;;;;;;;;4984477;28;20165;-47
2021/09/15 13:50:35;;;;;;;17.60;13.50;;;;;;;;;;4987676;28;20411;-46
2021/09/15 13:53:02;;;;;;;14.98;12.88;;;;;;;;;;4966506;28;20490;-43
2021/09/15 13:55:29;;;;;;;17.83;13.13;;;;;;;;;;4979104;28;20048;-47
2021/09/15 13:57:56;;;;;;;15.82;13.55;;;;;;;;;;4988818;28;20061;-47
2021/09/15 14:00:22;;;;;;;17.02;13.27;;;;;;;;;;4969779;28;20055;-46
2021/09/15 14:02:49;;;;;;;17.17;13.05;;;;;;;;;;4971683;28;20109;-48
2021/09/15 14:05:16;;;;;;;15.48;13.02;;;;;;;;;;4970026;28;20047;-47
2021/09/15 14:07:47;;;;;;;16.08;12.35;;;;;;;;;;4976518;28;20047;-46
2021/09/15 14:10:14;;;;;;;16.27;12.75;;;;;;;;;;4976282;28;20412;-48
2021/09/15 14:12:54;;;;;;;14.75;12.02;;;;;;;;;;4966755;28;20070;-45
2021/09/15 14:15:21;;;;;;;15.98;12.15;;;;;;;;;;4976475;28;20049;-46
2021/09/15 14:17:48;;;;;;;17.00;12.45;;;;;;;;;;4975280;28;20065;-43
2021/09/15 14:20:15;;;;;;;14.32;12.15;;;;;;;;;;4974587;28;20039;-45
2021/09/15 14:22:42;;;;;;;13.68;12.05;;;;;;;;;;4972770;28;20043;-46
2021/09/15 14:25:09;;;;;;;16.27;12.63;;;;;;;;;;4977153;28;20075;-45
2021/09/15 14:27:36;;;;;;;15.30;12.30;;;;;;;;;;4975483;28;20139;-46
2021/09/15 14:30:04;;;;;;;16.17;12.70;;;;;;;;;;4974860;28;20051;-44
2021/09/15 14:32:31;;;;;;;15.30;12.68;;;;;;;;;;4967100;28;20054;-46
2021/09/15 14:34:59;;;;;;;15.23;11.65;;;;;;;;;;4973842;28;20043;-44
2021/09/15 14:37:26;;;;;;;16.48;12.07;;;;;;;;;;4977688;28;20137;-46
2021/09/15 14:39:52;;;;;;;15.75;11.07;;;;;;;;;;4975451;28;20400;-47
2021/09/15 14:42:20;;;;;;;15.75;12.15;;;;;;;;;;4978333;28;20526;-44
2021/09/15 14:44:47;;;;;;;13.55;10.55;;;;;;;;;;4966044;28;20137;-46
2021/09/15 14:47:14;;;;;;;17.75;11.38;;;;;;;;;;4978936;28;20488;-49
2021/09/15 14:49:41;;;;;;;14.18;10.80;;;;;;;;;;4972664;28;20117;-45
2021/09/15 14:52:09;;;;;;;16.33;11.02;;;;;;;;;;4975934;28;20043;-45
2021/09/15 14:54:37;;;;;;;13.10;10.57;;;;;;;;;;4976646;28;20091;-46
2021/09/15 14:57:11;;;;;;;15.98;11.30;;;;;;;;;;4976741;28;20178;-45
2021/09/15 14:59:38;;;;;;;16.20;12.27;;;;;;;;;;4980730;28;20042;-46
2021/09/15 15:02:05;;;;;;;14.60;11.75;;;;;;;;;;4982021;28;20043;-46